Time;durP1;ratioP1;P1;durP2;ratioP2;P2;SDS_P1;SDS_P2;PMS_P1;PMS_P2;Temp;Humidity;BMP_temperature;BMP_pressure;BME280_temperature;BME280_humidity;BME280_pressure;Samples;Min_cycle;Max_cycle;Signal;HPM_P1;HPM_P2
2024/04/02 00:09:23;;;;;;;7.4;2;;;;;;;13.92;70.38;96938.333333333;;;;
2024/04/02 00:20:23;;;;;;;3.7;1.5;;;;;;;13.63;71.95;96951.666666667;;;;
2024/04/02 00:30:23;;;;;;;3.7;1.5;;;;;;;13.57;72.47;96960;;;;
2024/04/02 00:40:23;;;;;;;3.7;1.5;;;;;;;13.46;73.07;96961.666666667;;;;
2024/04/02 00:50:23;;;;;;;3.7;1.7;;;;;;;13.37;73.59;96961.666666667;;;;
2024/04/02 01:01:23;;;;;;;3.7;1.7;;;;;;;13.18;74.63;96943.333333333;;;;
2024/04/02 01:11:23;;;;;;;3.7;1.7;;;;;;;12.89;75.99;96938.333333333;;;;
2024/04/02 01:22:23;;;;;;;3.5;1.5;;;;;;;12.87;76.29;96936.666666667;;;;
2024/04/02 01:32:23;;;;;;;3.5;1.5;;;;;;;12.61;77.71;96950;;;;
2024/04/02 01:43:23;;;;;;;3.5;1.5;;;;;;;12.29;80.41;96961.666666667;;;;
2024/04/02 01:54:23;;;;;;;3.4;1.5;;;;;;;11.86;83.43;96981.666666667;;;;
2024/04/02 02:04:23;;;;;;;3.4;1.5;;;;;;;11.72;84.57;96996.666666667;;;;
2024/04/02 02:15:23;;;;;;;3.4;1.5;;;;;;;11.49;87.42;96993.333333333;;;;
2024/04/02 02:25:23;;;;;;;4.4;2.2;;;;;;;11.28;89.35;97021.666666667;;;;
2024/04/02 02:36:23;;;;;;;4.4;2.2;;;;;;;11.07;90.16;97030;;;;
2024/04/02 02:47:23;;;;;;;4.4;2.2;;;;;;;10.89;89.33;97050;;;;
2024/04/02 02:57:23;;;;;;;2.9;1.5;;;;;;;10.64;89.13;97016.666666667;;;;
2024/04/02 03:08:23;;;;;;;2.9;1.5;;;;;;;10.25;89.87;96986.666666667;;;;
2024/04/02 03:18:23;;;;;;;2.9;1.5;;;;;;;10.1;91.04;96990;;;;
2024/04/02 03:29:23;;;;;;;2.6;1.2;;;;;;;10.03;91.2;96993.333333333;;;;
2024/04/02 03:39:24;;;;;;;2.6;1.2;;;;;;;9.96;91.25;96993.333333333;;;;
2024/04/02 03:50:23;;;;;;;2.3;1.2;;;;;;;9.9;91.39;97001.666666667;;;;
2024/04/02 04:00:23;;;;;;;2.3;1.2;;;;;;;9.89;91.34;96990;;;;
2024/04/02 04:11:23;;;;;;;2.3;1.2;;;;;;;10.01;91;97016.666666667;;;;
2024/04/02 04:21:23;;;;;;;5.8;1.5;;;;;;;9.88;91.07;97031.666666667;;;;
2024/04/02 04:32:23;;;;;;;5.8;1.5;;;;;;;9.56;91.64;97043.333333333;;;;
2024/04/02 04:42:24;;;;;;;5.8;1.5;;;;;;;9.57;90.98;97058.333333333;;;;
2024/04/02 04:52:23;;;;;;;5;1.8;;;;;;;9.31;91.93;97068.333333333;;;;
2024/04/02 05:03:23;;;;;;;5;1.8;;;;;;;9.26;91.78;97073.333333333;;;;
2024/04/02 05:13:24;;;;;;;5;1.8;;;;;;;9.23;91.84;97088.333333333;;;;
2024/04/02 05:24:23;;;;;;;4.1;2;;;;;;;9.29;91.35;97076.666666667;;;;
2024/04/02 05:35:23;;;;;;;4.1;2;;;;;;;9.21;91.47;97073.333333333;;;;
2024/04/02 05:45:23;;;;;;;4.1;2;;;;;;;9.27;91.31;97078.333333333;;;;
2024/04/02 05:55:23;;;;;;;2.8;1.5;;;;;;;9.25;91.19;97091.666666667;;;;
2024/04/02 06:05:23;;;;;;;2.8;1.5;;;;;;;9.28;91;97103.333333333;;;;
2024/04/02 06:15:24;;;;;;;2.8;1.5;;;;;;;9.11;90.25;97126.666666667;;;;
2024/04/02 06:25:24;;;;;;;4.5;1.5;;;;;;;9.16;90.19;97130;;;;
2024/04/02 06:36:24;;;;;;;4.5;1.5;;;;;;;8.82;91.3;97147.5;;;;
2024/04/02 06:47:24;;;;;;;4.5;1.5;;;;;;;8.85;91.52;97152.5;;;;
2024/04/02 06:57:24;;;;;;;4.8;2;;;;;;;8.87;91.43;97150;;;;
2024/04/02 07:08:25;;;;;;;4.8;2;;;;;;;8.93;91.43;97171.666666667;;;;
2024/04/02 07:19:24;;;;;;;14;7.5;;;;;;;8.88;91.5;97196.666666667;;;;
2024/04/02 07:30:24;;;;;;;14;7.5;;;;;;;8.86;91.11;97228.333333333;;;;
2024/04/02 07:41:24;;;;;;;14;7.5;;;;;;;8.82;91.6;97238.333333333;;;;
2024/04/02 07:51:24;;;;;;;5.4;2.2;;;;;;;8.73;90.92;97255;;;;
2024/04/02 08:02:24;;;;;;;5.4;2.2;;;;;;;8.56;90.6;97293.333333333;;;;
2024/04/02 08:13:24;;;;;;;5.4;2.2;;;;;;;8.21;88.93;97346.666666667;;;;
2024/04/02 08:23:24;;;;;;;6.8;3;;;;;;;8.03;87.5;97358.333333333;;;;
2024/04/02 08:34:24;;;;;;;6.8;3;;;;;;;8.12;87.32;97378.333333333;;;;
2024/04/02 08:44:24;;;;;;;6.8;3;;;;;;;8.14;88.04;97375;;;;
2024/04/02 08:55:24;;;;;;;7.2;2.8;;;;;;;8.35;89.48;97375;;;;
2024/04/02 09:06:24;;;;;;;7.2;2.8;;;;;;;8.41;88.85;97395;;;;
2024/04/02 09:16:24;;;;;;;7.2;2.8;;;;;;;8.6;87.79;97416.666666667;;;;
2024/04/02 09:27:24;;;;;;;5.3;2.9;;;;;;;8.67;88.08;97433.333333333;;;;
2024/04/02 09:38:24;;;;;;;5.3;2.9;;;;;;;8.87;86.78;97438.333333333;;;;
2024/04/02 09:49:24;;;;;;;8.2;2.8;;;;;;;9.21;86.72;97446.666666667;;;;
2024/04/02 10:00:24;;;;;;;8.2;2.8;;;;;;;9.3;85.65;97456.666666667;;;;
2024/04/02 10:10:24;;;;;;;8.2;2.8;;;;;;;9.38;86.53;97476.666666667;;;;
2024/04/02 10:20:24;;;;;;;6.1;3.2;;;;;;;9.54;86.57;97468.333333333;;;;
2024/04/02 10:31:24;;;;;;;6.1;3.2;;;;;;;9.52;87.37;97480;;;;
2024/04/02 10:41:24;;;;;;;6.1;3.2;;;;;;;9.74;86.75;97490;;;;
2024/04/02 10:52:24;;;;;;;6.2;2.6;;;;;;;9.88;85.79;97500;;;;
2024/04/02 11:02:24;;;;;;;6.2;2.6;;;;;;;9.85;86.09;97506.666666667;;;;
2024/04/02 11:13:24;;;;;;;6.2;2.6;;;;;;;9.33;87.87;97511.666666667;;;;
2024/04/02 11:34:24;;;;;;;5.3;2.4;;;;;;;9.57;87.35;97528.333333333;;;;
2024/04/02 11:45:24;;;;;;;5.3;2.4;;;;;;;9.66;86.86;97538.333333333;;;;
2024/04/02 12:00:00;;;;;;;5.7;2.3;;;;;;;9.82;86.36;97533.333333333;;;;
2024/04/02 12:06:24;;;;;;;5.7;2.3;;;;;;;10.13;85.79;97550;;;;
2024/04/02 12:16:24;;;;;;;5.7;2.3;;;;;;;10.3;85.18;97555;;;;
2024/04/02 12:27:24;;;;;;;5.3;3;;;;;;;10.87;84.06;97565;;;;
2024/04/02 12:37:24;;;;;;;5.3;3;;;;;;;11.09;82.64;97576.666666667;;;;
2024/04/02 12:47:24;;;;;;;5.3;3;;;;;;;11.55;81.34;97580;;;;
2024/04/02 12:58:24;;;;;;;7.3;3.8;;;;;;;12.02;79.76;97580;;;;
2024/04/02 13:08:24;;;;;;;7.3;3.8;;;;;;;12.25;78.79;97583.333333333;;;;
2024/04/02 13:19:24;;;;;;;9.8;5.5;;;;;;;12.36;76.03;97566.666666667;;;;
2024/04/02 13:30:24;;;;;;;9.8;5.5;;;;;;;12.69;73.83;97566.666666667;;;;
2024/04/02 13:40:24;;;;;;;9.8;5.5;;;;;;;13.24;72.62;97568.333333333;;;;
2024/04/02 13:51:24;;;;;;;8.7;4.1;;;;;;;13.38;70.33;97570;;;;
2024/04/02 14:01:24;;;;;;;8.7;4.1;;;;;;;12.79;71.41;97556.666666667;;;;
2024/04/02 14:11:24;;;;;;;8.7;4.1;;;;;;;12.7;72.77;97553.333333333;;;;
2024/04/02 14:22:24;;;;;;;5.4;3.1;;;;;;;11.35;80.39;97676.666666667;;;;
2024/04/02 14:32:25;;;;;;;5.4;3.1;;;;;;;9.35;85.29;97610;;;;
2024/04/02 14:43:24;;;;;;;5.4;3.1;;;;;;;9.58;87.76;97623.333333333;;;;
2024/04/02 14:53:24;;;;;;;4;1.3;;;;;;;10.44;91.63;97610;;;;
2024/04/02 15:03:24;;;;;;;4;1.3;;;;;;;10.76;90.58;97603.333333333;;;;
2024/04/02 15:14:24;;;;;;;4;1.3;;;;;;;11.16;92.68;97595;;;;
2024/04/02 15:24:25;;;;;;;9;4.2;;;;;;;11.01;91.65;97645;;;;
2024/04/02 15:34:24;;;;;;;9;4.2;;;;;;;8.97;86.72;97678.333333333;;;;
2024/04/02 15:45:24;;;;;;;9;4.2;;;;;;;8.19;90.15;97650;;;;
2024/04/02 15:56:24;;;;;;;3;2.4;;;;;;;8.05;90.17;97638.333333333;;;;
2024/04/02 16:06:24;;;;;;;3;2.4;;;;;;;8.15;89.52;97645;;;;
2024/04/02 16:16:24;;;;;;;3;2.4;;;;;;;8.32;91.53;97650;;;;
2024/04/02 16:27:24;;;;;;;3.1;1.1;;;;;;;8.2;90.3;97670;;;;
2024/04/02 16:38:24;;;;;;;3.1;1.1;;;;;;;8.11;90.59;97660;;;;
2024/04/02 16:49:24;;;;;;;3.6;1.8;;;;;;;8.25;91;97646.666666667;;;;
2024/04/02 17:00:24;;;;;;;3.6;1.8;;;;;;;8.41;91.2;97658.333333333;;;;
2024/04/02 17:11:24;;;;;;;3.6;1.8;;;;;;;8.39;91.16;97671.666666667;;;;
2024/04/02 17:21:25;;;;;;;3.5;1.2;;;;;;;8.24;90.8;97678.333333333;;;;
2024/04/02 17:32:24;;;;;;;3.5;1.2;;;;;;;8.01;90.49;97696.666666667;;;;
2024/04/02 17:43:24;;;;;;;3.5;1.2;;;;;;;8.04;90.81;97695;;;;
2024/04/02 17:53:24;;;;;;;5.9;2.4;;;;;;;8.03;91.41;97700;;;;
2024/04/02 18:03:24;;;;;;;5.9;2.4;;;;;;;7.97;91.04;97705;;;;
2024/04/02 18:14:25;;;;;;;5.9;2.4;;;;;;;8.05;90.59;97720;;;;
2024/04/02 18:25:24;;;;;;;6.7;2.8;;;;;;;8.24;90.05;97723.333333333;;;;
2024/04/02 18:35:24;;;;;;;6.7;2.8;;;;;;;8.32;89.9;97725;;;;
2024/04/02 18:46:24;;;;;;;6.7;2.8;;;;;;;8.25;89.74;97723.333333333;;;;
2024/04/02 18:57:24;;;;;;;6.2;2.5;;;;;;;8.19;89.5;97713.333333333;;;;
2024/04/02 19:07:24;;;;;;;6.2;2.5;;;;;;;8.17;88.42;97711.666666667;;;;
2024/04/02 19:17:24;;;;;;;6.2;2.5;;;;;;;8.24;86.98;97725;;;;
2024/04/02 19:27:24;;;;;;;5.2;2.8;;;;;;;8.32;88.01;97736.666666667;;;;
2024/04/02 19:37:24;;;;;;;5.2;2.8;;;;;;;8.55;87.23;97733.333333333;;;;
2024/04/02 19:47:24;;;;;;;5.2;2.8;;;;;;;8.82;85.15;97753.333333333;;;;
2024/04/02 19:57:25;;;;;;;5.4;2.1;;;;;;;8.87;84.67;97783.333333333;;;;
2024/04/02 20:08:24;;;;;;;5.4;2.1;;;;;;;9.03;82.74;97778.333333333;;;;
2024/04/02 20:18:24;;;;;;;5.3;2.5;;;;;;;9.11;83.82;97778.333333333;;;;
2024/04/02 20:29:24;;;;;;;5.3;2.5;;;;;;;9.21;82.54;97780;;;;
2024/04/02 20:39:24;;;;;;;5.3;2.5;;;;;;;9.26;81.53;97785;;;;
2024/04/02 20:49:24;;;;;;;4.4;2.4;;;;;;;9.1;82.55;97788.333333333;;;;
2024/04/02 20:59:24;;;;;;;4.4;2.4;;;;;;;9.02;79.96;97790;;;;
2024/04/02 21:10:24;;;;;;;4.4;2.4;;;;;;;8.91;80.29;97795;;;;
2024/04/02 21:20:26;;;;;;;5.1;1.9;;;;;;;8.88;81.01;97788.333333333;;;;
2024/04/02 21:30:24;;;;;;;5.1;1.9;;;;;;;8.76;80.32;97790;;;;
2024/04/02 21:41:24;;;;;;;5.1;1.9;;;;;;;8.56;81.9;97785;;;;
2024/04/02 21:52:24;;;;;;;3.9;1.6;;;;;;;8.56;80.82;97788.333333333;;;;
2024/04/02 22:02:24;;;;;;;3.9;1.6;;;;;;;8.49;81.14;97801.666666667;;;;
2024/04/02 22:13:24;;;;;;;3.9;1.6;;;;;;;8.53;79.69;97811.666666667;;;;
2024/04/02 22:24:24;;;;;;;2.6;1.1;;;;;;;8.51;80.12;97816.666666667;;;;
2024/04/02 22:35:24;;;;;;;2.6;1.1;;;;;;;8.68;78.83;97821.666666667;;;;
2024/04/02 22:45:24;;;;;;;2.6;1.1;;;;;;;8.97;77.9;97820;;;;
2024/04/02 22:55:24;;;;;;;2;0.8;;;;;;;9.17;76.02;97815;;;;
2024/04/02 23:06:24;;;;;;;2;0.8;;;;;;;9.42;74.2;97813.333333333;;;;
2024/04/02 23:16:24;;;;;;;2;0.8;;;;;;;9.67;72.56;97813.333333333;;;;
2024/04/02 23:26:24;;;;;;;1.9;0.9;;;;;;;9.97;70.52;97816.666666667;;;;
2024/04/02 23:37:24;;;;;;;1.9;0.9;;;;;;;9.95;68.95;97823.333333333;;;;
2024/04/02 23:47:24;;;;;;;5.2;1.4;;;;;;;9.84;69.62;97825;;;;
2024/04/02 23:58:25;;;;;;;5.2;1.4;;;;;;;9.54;69.7;97823.333333333;;;;
